sensor_id;sensor_type;location;lat;lon;timestamp;pressure;altitude;pressure_sealevel;temperature;humidity
34197;BME280;36594;45.192;5.722;2023-04-07T00:00:31;99278.88;;;24.74;31.70
34197;BME280;36594;45.192;5.722;2023-04-07T00:03:20;99281.16;;;24.78;31.68
34197;BME280;36594;45.192;5.722;2023-04-07T00:06:08;99282.53;;;24.78;31.67
34197;BME280;36594;45.192;5.722;2023-04-07T00:08:57;99281.16;;;24.78;31.70
34197;BME280;36594;45.192;5.722;2023-04-07T00:11:45;99280.66;;;24.81;31.68
34197;BME280;36594;45.192;5.722;2023-04-07T00:14:34;99281.50;;;24.84;31.65
34197;BME280;36594;45.192;5.722;2023-04-07T00:17:23;99282.30;;;24.82;31.68
34197;BME280;36594;45.192;5.722;2023-04-07T00:20:12;99281.23;;;24.83;31.67
34197;BME280;36594;45.192;5.722;2023-04-07T00:23:00;99281.27;;;24.85;31.67
34197;BME280;36594;45.192;5.722;2023-04-07T00:25:49;99275.52;;;24.87;31.65
34197;BME280;36594;45.192;5.722;2023-04-07T00:28:37;99271.69;;;24.88;31.63
34197;BME280;36594;45.192;5.722;2023-04-07T00:31:26;99268.14;;;24.90;31.63
34197;BME280;36594;45.192;5.722;2023-04-07T00:34:14;99259.06;;;24.89;31.61
34197;BME280;36594;45.192;5.722;2023-04-07T00:37:02;99262.92;;;24.91;31.64
34197;BME280;36594;45.192;5.722;2023-04-07T00:39:52;99256.02;;;24.88;31.65
34197;BME280;36594;45.192;5.722;2023-04-07T00:42:42;99252.22;;;24.92;31.68
34197;BME280;36594;45.192;5.722;2023-04-07T00:45:31;99253.06;;;24.92;31.67
34197;BME280;36594;45.192;5.722;2023-04-07T00:48:19;99239.02;;;24.91;31.70
34197;BME280;36594;45.192;5.722;2023-04-07T00:51:08;99229.10;;;24.90;31.71
34197;BME280;36594;45.192;5.722;2023-04-07T00:53:57;99220.02;;;24.87;31.79
34197;BME280;36594;45.192;5.722;2023-04-07T00:56:46;99210.38;;;24.85;31.81
34197;BME280;36594;45.192;5.722;2023-04-07T00:59:34;99211.52;;;24.89;31.77
34197;BME280;36594;45.192;5.722;2023-04-07T01:05:58;99214.83;;;24.91;31.79
34197;BME280;36594;45.192;5.722;2023-04-07T01:08:53;99227.73;;;24.90;31.84
34197;BME280;36594;45.192;5.722;2023-04-07T01:11:47;99228.30;;;24.90;31.87
34197;BME280;36594;45.192;5.722;2023-04-07T01:14:40;99223.07;;;24.91;31.82
34197;BME280;36594;45.192;5.722;2023-04-07T01:17:34;99232.19;;;24.94;31.85
34197;BME280;36594;45.192;5.722;2023-04-07T01:20:26;99218.48;;;24.96;31.80
34197;BME280;36594;45.192;5.722;2023-04-07T01:23:30;99214.39;;;24.99;31.82
34197;BME280;36594;45.192;5.722;2023-04-07T01:26:30;99210.54;;;25.00;31.85
34197;BME280;36594;45.192;5.722;2023-04-07T01:32:10;99221.86;;;25.03;31.88
34197;BME280;36594;45.192;5.722;2023-04-07T01:35:00;99215.27;;;25.04;31.88
34197;BME280;36594;45.192;5.722;2023-04-07T01:37:50;99220.52;;;25.06;31.91
34197;BME280;36594;45.192;5.722;2023-04-07T01:40:40;99218.61;;;25.09;31.87
34197;BME280;36594;45.192;5.722;2023-04-07T01:43:30;99218.94;;;25.12;31.84
34197;BME280;36594;45.192;5.722;2023-04-07T01:46:20;99225.52;;;25.11;31.83
34197;BME280;36594;45.192;5.722;2023-04-07T01:49:11;99223.91;;;25.13;31.87
34197;BME280;36594;45.192;5.722;2023-04-07T01:52:00;99218.97;;;25.15;31.92
34197;BME280;36594;45.192;5.722;2023-04-07T01:54:48;99217.87;;;25.13;32.01
34197;BME280;36594;45.192;5.722;2023-04-07T01:57:37;99219.84;;;25.18;31.95
34197;BME280;36594;45.192;5.722;2023-04-07T02:00:27;99212.12;;;25.17;31.91
34197;BME280;36594;45.192;5.722;2023-04-07T02:03:27;99218.47;;;25.18;31.95
34197;BME280;36594;45.192;5.722;2023-04-07T02:06:10;99208.84;;;25.18;31.92
34197;BME280;36594;45.192;5.722;2023-04-07T02:09:03;99215.72;;;25.18;31.94
34197;BME280;36594;45.192;5.722;2023-04-07T02:11:53;99221.75;;;25.17;31.98
34197;BME280;36594;45.192;5.722;2023-04-07T02:14:43;99214.34;;;25.18;31.98
34197;BME280;36594;45.192;5.722;2023-04-07T02:17:35;99216.25;;;25.17;31.94
34197;BME280;36594;45.192;5.722;2023-04-07T02:20:25;99212.70;;;25.19;31.93
34197;BME280;36594;45.192;5.722;2023-04-07T02:23:14;99215.45;;;25.19;31.93
34197;BME280;36594;45.192;5.722;2023-04-07T02:26:03;99209.14;;;25.21;31.88
34197;BME280;36594;45.192;5.722;2023-04-07T02:28:52;99209.70;;;25.23;31.87
34197;BME280;36594;45.192;5.722;2023-04-07T02:31:40;99198.92;;;25.17;31.88
34197;BME280;36594;45.192;5.722;2023-04-07T02:34:29;99196.27;;;25.24;31.84
34197;BME280;36594;45.192;5.722;2023-04-07T02:37:17;99204.21;;;25.23;31.83
34197;BME280;36594;45.192;5.722;2023-04-07T02:40:07;99204.54;;;25.27;31.80
34197;BME280;36594;45.192;5.722;2023-04-07T02:42:55;99202.63;;;25.27;31.77
34197;BME280;36594;45.192;5.722;2023-04-07T02:45:43;99205.91;;;25.27;31.79
34197;BME280;36594;45.192;5.722;2023-04-07T02:48:32;99204.56;;;25.29;31.76
34197;BME280;36594;45.192;5.722;2023-04-07T02:51:21;99203.46;;;25.30;31.68
34197;BME280;36594;45.192;5.722;2023-04-07T02:54:10;99196.56;;;25.28;31.75
34197;BME280;36594;45.192;5.722;2023-04-07T02:56:58;99198.50;;;25.27;31.73
34197;BME280;36594;45.192;5.722;2023-04-07T02:59:48;99192.70;;;25.26;31.67
34197;BME280;36594;45.192;5.722;2023-04-07T03:02:37;99185.00;;;25.26;31.68
34197;BME280;36594;45.192;5.722;2023-04-07T03:05:25;99182.55;;;25.27;31.66
34197;BME280;36594;45.192;5.722;2023-04-07T03:08:14;99176.75;;;25.26;31.68
34197;BME280;36594;45.192;5.722;2023-04-07T03:11:03;99175.67;;;25.27;31.67
34197;BME280;36594;45.192;5.722;2023-04-07T03:13:52;99177.58;;;25.26;31.60
34197;BME280;36594;45.192;5.722;2023-04-07T03:16:42;99174.56;;;25.28;31.45
34197;BME280;36594;45.192;5.722;2023-04-07T03:19:32;99176.75;;;25.26;31.41
34197;BME280;36594;45.192;5.722;2023-04-07T03:22:20;99173.77;;;25.27;31.35
34197;BME280;36594;45.192;5.722;2023-04-07T03:25:10;99168.27;;;25.27;31.29
34197;BME280;36594;45.192;5.722;2023-04-07T03:27:58;99158.61;;;25.25;31.30
34197;BME280;36594;45.192;5.722;2023-04-07T03:30:48;99163.56;;;25.28;31.24
34197;BME280;36594;45.192;5.722;2023-04-07T03:33:38;99163.56;;;25.28;31.27
34197;BME280;36594;45.192;5.722;2023-04-07T03:36:28;99156.45;;;25.29;31.15
34197;BME280;36594;45.192;5.722;2023-04-07T03:39:19;99152.33;;;25.29;31.15
34197;BME280;36594;45.192;5.722;2023-04-07T03:42:10;99158.91;;;25.28;31.16
34197;BME280;36594;45.192;5.722;2023-04-07T03:44:58;99153.70;;;25.29;31.15
34197;BME280;36594;45.192;5.722;2023-04-07T03:47:47;99150.13;;;25.29;31.15
34197;BME280;36594;45.192;5.722;2023-04-07T03:50:36;99142.69;;;25.27;31.13
34197;BME280;36594;45.192;5.722;2023-04-07T03:53:27;99149.83;;;25.28;31.05
34197;BME280;36594;45.192;5.722;2023-04-07T03:56:16;99144.06;;;25.27;31.01
34197;BME280;36594;45.192;5.722;2023-04-07T03:59:06;99137.99;;;25.25;31.02
34197;BME280;36594;45.192;5.722;2023-04-07T04:01:56;99136.05;;;25.25;31.08
34197;BME280;36594;45.192;5.722;2023-04-07T04:04:45;99143.76;;;25.26;31.03
34197;BME280;36594;45.192;5.722;2023-04-07T04:07:34;99137.72;;;25.26;30.90
34197;BME280;36594;45.192;5.722;2023-04-07T04:10:23;99135.52;;;25.26;30.99
34197;BME280;36594;45.192;5.722;2023-04-07T04:13:13;99140.17;;;25.25;31.14
34197;BME280;36594;45.192;5.722;2023-04-07T04:16:02;99122.88;;;25.25;31.25
34197;BME280;36594;45.192;5.722;2023-04-07T04:18:51;99128.94;;;25.27;31.24
34197;BME280;36594;45.192;5.722;2023-04-07T04:21:40;99127.27;;;25.26;31.24
34197;BME280;36594;45.192;5.722;2023-04-07T04:24:29;99128.91;;;25.24;31.24
34197;BME280;36594;45.192;5.722;2023-04-07T04:27:19;99123.95;;;25.24;31.27
34197;BME280;36594;45.192;5.722;2023-04-07T04:30:09;99136.32;;;25.24;31.27
34197;BME280;36594;45.192;5.722;2023-04-07T04:33:09;99136.83;;;25.21;31.33
34197;BME280;36594;45.192;5.722;2023-04-07T04:35:59;99135.45;;;25.21;31.37
34197;BME280;36594;45.192;5.722;2023-04-07T04:38:48;99137.70;;;25.24;31.33
34197;BME280;36594;45.192;5.722;2023-04-07T04:41:37;99139.05;;;25.21;31.30
34197;BME280;36594;45.192;5.722;2023-04-07T04:44:27;99132.17;;;25.21;31.33
34197;BME280;36594;45.192;5.722;2023-04-07T04:47:18;99131.33;;;25.21;31.36
34197;BME280;36594;45.192;5.722;2023-04-07T04:50:07;99133.01;;;25.22;31.38
34197;BME280;36594;45.192;5.722;2023-04-07T04:52:57;99119.80;;;25.21;31.34
34197;BME280;36594;45.192;5.722;2023-04-07T04:55:46;99119.27;;;25.22;31.37
34197;BME280;36594;45.192;5.722;2023-04-07T04:58:38;99115.70;;;25.24;31.32
34197;BME280;36594;45.192;5.722;2023-04-07T05:01:30;99120.09;;;25.22;31.31
34197;BME280;36594;45.192;5.722;2023-04-07T05:04:20;99108.83;;;25.24;31.36
34197;BME280;36594;45.192;5.722;2023-04-07T05:07:10;99107.16;;;25.23;31.41
34197;BME280;36594;45.192;5.722;2023-04-07T05:09:59;99112.12;;;25.23;31.39
34197;BME280;36594;45.192;5.722;2023-04-07T05:12:50;99109.91;;;25.23;31.36
34197;BME280;36594;45.192;5.722;2023-04-07T05:15:40;99106.05;;;25.21;31.40
34197;BME280;36594;45.192;5.722;2023-04-07T05:18:30;99108.83;;;25.24;31.41
34197;BME280;36594;45.192;5.722;2023-04-07T05:21:19;99116.78;;;25.23;31.40
34197;BME280;36594;45.192;5.722;2023-04-07T05:24:09;99121.47;;;25.22;31.44
34197;BME280;36594;45.192;5.722;2023-04-07T05:26:58;99118.98;;;25.23;31.43
34197;BME280;36594;45.192;5.722;2023-04-07T05:29:47;99118.75;;;25.25;31.39
34197;BME280;36594;45.192;5.722;2023-04-07T05:32:37;99117.37;;;25.25;31.56
34197;BME280;36594;45.192;5.722;2023-04-07T05:35:28;99117.10;;;25.26;31.48
34197;BME280;36594;45.192;5.722;2023-04-07T05:38:17;99110.20;;;25.24;31.40
34197;BME280;36594;45.192;5.722;2023-04-07T05:41:05;99100.83;;;25.20;30.94
34197;BME280;36594;45.192;5.722;2023-04-07T05:43:54;99101.34;;;25.17;31.20
34197;BME280;36594;45.192;5.722;2023-04-07T05:46:43;99112.64;;;25.18;31.31
34197;BME280;36594;45.192;5.722;2023-04-07T05:49:33;99122.50;;;25.16;31.40
34197;BME280;36594;45.192;5.722;2023-04-07T05:52:24;99116.11;;;25.08;30.43
34197;BME280;36594;45.192;5.722;2023-04-07T05:55:14;99116.92;;;25.09;30.41
34197;BME280;36594;45.192;5.722;2023-04-07T05:58:02;99116.66;;;25.08;30.93
34197;BME280;36594;45.192;5.722;2023-04-07T06:00:52;99113.36;;;25.08;30.75
34197;BME280;36594;45.192;5.722;2023-04-07T06:03:41;99104.02;;;25.09;30.61
34197;BME280;36594;45.192;5.722;2023-04-07T06:06:31;99118.86;;;25.08;30.75
34197;BME280;36594;45.192;5.722;2023-04-07T06:09:23;99124.63;;;25.09;30.82
34197;BME280;36594;45.192;5.722;2023-04-07T06:12:11;99128.48;;;25.08;30.93
34197;BME280;36594;45.192;5.722;2023-04-07T06:15:01;99136.42;;;25.07;30.95
34197;BME280;36594;45.192;5.722;2023-04-07T06:17:49;99137.80;;;25.07;31.01
34197;BME280;36594;45.192;5.722;2023-04-07T06:20:37;99130.39;;;25.08;31.05
34197;BME280;36594;45.192;5.722;2023-04-07T06:23:26;99124.95;;;25.13;31.06
34197;BME280;36594;45.192;5.722;2023-04-07T06:26:14;99126.03;;;25.12;31.07
34197;BME280;36594;45.192;5.722;2023-04-07T06:29:03;99129.53;;;25.05;31.13
34197;BME280;36594;45.192;5.722;2023-04-07T06:31:52;99132.19;;;24.97;31.23
34197;BME280;36594;45.192;5.722;2023-04-07T06:34:40;99124.19;;;24.93;31.27
34197;BME280;36594;45.192;5.722;2023-04-07T06:37:29;99124.99;;;24.91;31.28
34197;BME280;36594;45.192;5.722;2023-04-07T06:40:18;99137.33;;;24.89;31.37
34197;BME280;36594;45.192;5.722;2023-04-07T06:43:06;99140.08;;;24.89;31.40
34197;BME280;36594;45.192;5.722;2023-04-07T06:46:02;99134.88;;;24.90;31.40
34197;BME280;36594;45.192;5.722;2023-04-07T06:48:51;99131.83;;;24.89;31.43
34197;BME280;36594;45.192;5.722;2023-04-07T06:51:40;99137.63;;;24.90;31.44
34197;BME280;36594;45.192;5.722;2023-04-07T06:54:29;99144.77;;;24.91;31.46
34197;BME280;36594;45.192;5.722;2023-04-07T06:57:17;99157.66;;;24.90;31.44
34197;BME280;36594;45.192;5.722;2023-04-07T07:00:08;99161.55;;;24.92;31.44
34197;BME280;36594;45.192;5.722;2023-04-07T07:02:56;99165.70;;;24.94;31.46
34197;BME280;36594;45.192;5.722;2023-04-07T07:05:45;99172.03;;;24.97;31.45
34197;BME280;36594;45.192;5.722;2023-04-07T07:08:33;99172.61;;;24.97;31.48
34197;BME280;36594;45.192;5.722;2023-04-07T07:11:21;99178.13;;;24.99;31.52
34197;BME280;36594;45.192;5.722;2023-04-07T07:14:10;99180.67;;;25.06;31.52
34197;BME280;36594;45.192;5.722;2023-04-07T07:16:58;99186.02;;;25.17;31.45
34197;BME280;36594;45.192;5.722;2023-04-07T07:19:46;99184.73;;;25.25;31.36
34197;BME280;36594;45.192;5.722;2023-04-07T07:22:34;99179.53;;;25.28;31.29
34197;BME280;36594;45.192;5.722;2023-04-07T07:25:23;99186.97;;;25.30;31.28
34197;BME280;36594;45.192;5.722;2023-04-07T07:28:13;99187.50;;;25.30;31.23
34197;BME280;36594;45.192;5.722;2023-04-07T07:31:09;99190.25;;;25.30;31.28
34197;BME280;36594;45.192;5.722;2023-04-07T07:33:59;99189.45;;;25.29;31.31
34197;BME280;36594;45.192;5.722;2023-04-07T07:36:48;99187.50;;;25.30;31.32
34197;BME280;36594;45.192;5.722;2023-04-07T07:39:36;99193.84;;;25.30;31.31
34197;BME280;36594;45.192;5.722;2023-04-07T07:42:25;99197.12;;;25.30;31.36
34197;BME280;36594;45.192;5.722;2023-04-07T07:45:13;99202.63;;;25.30;31.34
34197;BME280;36594;45.192;5.722;2023-04-07T07:48:02;99200.98;;;25.29;31.39
34197;BME280;36594;45.192;5.722;2023-04-07T07:50:50;99206.48;;;25.29;31.43
34197;BME280;36594;45.192;5.722;2023-04-07T07:53:38;99212.81;;;25.29;31.41
34197;BME280;36594;45.192;5.722;2023-04-07T07:56:27;99215.84;;;25.30;31.43
34197;BME280;36594;45.192;5.722;2023-04-07T07:59:15;99224.89;;;25.28;31.44
34197;BME280;36594;45.192;5.722;2023-04-07T08:02:03;99238.91;;;25.27;31.47
34197;BME280;36594;45.192;5.722;2023-04-07T08:04:52;99245.48;;;25.26;31.50
34197;BME280;36594;45.192;5.722;2023-04-07T08:07:40;99247.96;;;25.25;31.51
34197;BME280;36594;45.192;5.722;2023-04-07T08:10:30;99254.00;;;25.24;31.52
34197;BME280;36594;45.192;5.722;2023-04-07T08:13:18;99253.59;;;25.16;31.53
34197;BME280;36594;45.192;5.722;2023-04-07T08:16:06;99268.58;;;25.25;31.54
34197;BME280;36594;45.192;5.722;2023-04-07T08:18:55;99255.10;;;25.26;31.60
34197;BME280;36594;45.192;5.722;2023-04-07T08:21:43;99263.89;;;25.25;31.59
34197;BME280;36594;45.192;5.722;2023-04-07T08:24:32;99270.19;;;25.23;31.55
34197;BME280;36594;45.192;5.722;2023-04-07T08:27:20;99281.75;;;25.25;31.57
34197;BME280;36594;45.192;5.722;2023-04-07T08:30:09;99287.56;;;25.26;31.59
34197;BME280;36594;45.192;5.722;2023-04-07T08:32:58;99287.83;;;25.25;31.62
34197;BME280;36594;45.192;5.722;2023-04-07T08:35:46;99282.03;;;25.24;31.62
34197;BME280;36594;45.192;5.722;2023-04-07T08:38:34;99283.41;;;25.24;31.64
34197;BME280;36594;45.192;5.722;2023-04-07T08:41:38;99288.09;;;25.26;31.60
34197;BME280;36594;45.192;5.722;2023-04-07T08:44:27;99298.02;;;25.27;31.63
34197;BME280;36594;45.192;5.722;2023-04-07T08:47:17;99299.59;;;25.23;31.67
34197;BME280;36594;45.192;5.722;2023-04-07T08:50:09;99302.38;;;25.25;31.67
34197;BME280;36594;45.192;5.722;2023-04-07T08:52:59;99299.36;;;25.24;31.72
34197;BME280;36594;45.192;5.722;2023-04-07T08:55:47;99305.16;;;25.28;31.78
34197;BME280;36594;45.192;5.722;2023-04-07T08:58:36;99304.35;;;25.27;31.77
34197;BME280;36594;45.192;5.722;2023-04-07T09:01:26;99303.22;;;25.26;31.78
34197;BME280;36594;45.192;5.722;2023-04-07T09:04:15;99315.02;;;25.24;31.87
34197;BME280;36594;45.192;5.722;2023-04-07T09:07:03;99313.91;;;25.22;32.40
34197;BME280;36594;45.192;5.722;2023-04-07T09:09:52;99319.67;;;25.23;32.36
34197;BME280;36594;45.192;5.722;2023-04-07T09:12:43;99320.22;;;25.23;32.35
34197;BME280;36594;45.192;5.722;2023-04-07T09:15:32;99325.47;;;25.24;32.26
34197;BME280;36594;45.192;5.722;2023-04-07T09:18:20;99328.46;;;25.23;32.33
34197;BME280;36594;45.192;5.722;2023-04-07T09:21:08;99327.95;;;25.26;32.32
34197;BME280;36594;45.192;5.722;2023-04-07T09:23:57;99333.19;;;25.25;32.33
34197;BME280;36594;45.192;5.722;2023-04-07T09:26:46;99334.80;;;25.23;32.38
34197;BME280;36594;45.192;5.722;2023-04-07T09:29:34;99321.55;;;25.18;32.34
34197;BME280;36594;45.192;5.722;2023-04-07T09:32:37;99320.41;;;25.16;32.40
34197;BME280;36594;45.192;5.722;2023-04-07T09:35:26;99340.06;;;25.25;32.40
34197;BME280;36594;45.192;5.722;2023-04-07T09:38:15;99333.69;;;25.22;32.47
34197;BME280;36594;45.192;5.722;2023-04-07T09:41:12;99337.31;;;25.25;32.44
34197;BME280;36594;45.192;5.722;2023-04-07T09:44:01;99330.64;;;25.21;32.48
34197;BME280;36594;45.192;5.722;2023-04-07T09:46:54;99338.62;;;25.20;32.50
34197;BME280;36594;45.192;5.722;2023-04-07T09:49:51;99341.33;;;25.17;32.55
34197;BME280;36594;45.192;5.722;2023-04-07T09:52:51;99339.16;;;25.19;32.52
34197;BME280;36594;45.192;5.722;2023-04-07T09:55:39;99332.55;;;25.18;32.53
34197;BME280;36594;45.192;5.722;2023-04-07T09:58:29;99332.55;;;25.18;32.52
34197;BME280;36594;45.192;5.722;2023-04-07T10:01:19;99330.06;;;25.19;32.51
34197;BME280;36594;45.192;5.722;2023-04-07T10:04:07;99328.69;;;25.19;32.52
34197;BME280;36594;45.192;5.722;2023-04-07T10:06:57;99326.78;;;25.19;32.51
34197;BME280;36594;45.192;5.722;2023-04-07T10:09:46;99329.53;;;25.19;32.51
34197;BME280;36594;45.192;5.722;2023-04-07T10:12:36;99328.42;;;25.18;32.50
34197;BME280;36594;45.192;5.722;2023-04-07T10:15:25;99327.05;;;25.18;32.45
34197;BME280;36594;45.192;5.722;2023-04-07T10:18:14;99320.71;;;25.17;32.48
34197;BME280;36594;45.192;5.722;2023-04-07T10:21:05;99321.58;;;25.20;32.43
34197;BME280;36594;45.192;5.722;2023-04-07T10:24:06;99318.84;;;25.20;32.39
34197;BME280;36594;45.192;5.722;2023-04-07T10:26:52;99317.19;;;25.22;32.34
34197;BME280;36594;45.192;5.722;2023-04-07T10:29:42;99316.59;;;25.17;32.40
34197;BME280;36594;45.192;5.722;2023-04-07T10:32:31;99321.02;;;25.21;32.39
34197;BME280;36594;45.192;5.722;2023-04-07T10:35:20;99311.70;;;25.22;32.36
34197;BME280;36594;45.192;5.722;2023-04-07T10:38:13;99310.55;;;25.18;32.38
34197;BME280;36594;45.192;5.722;2023-04-07T10:41:30;99302.61;;;25.21;32.38
34197;BME280;36594;45.192;5.722;2023-04-07T10:47:30;99294.27;;;25.14;32.41
34197;BME280;36594;45.192;5.722;2023-04-07T10:50:23;99289.60;;;25.14;32.42
34197;BME280;36594;45.192;5.722;2023-04-07T10:53:14;99285.21;;;25.16;32.39
34197;BME280;36594;45.192;5.722;2023-04-07T10:56:02;99278.10;;;25.17;32.38
34197;BME280;36594;45.192;5.722;2023-04-07T10:59:16;99279.72;;;25.16;32.36
34197;BME280;36594;45.192;5.722;2023-04-07T11:01:43;99281.09;;;25.16;32.43
34197;BME280;36594;45.192;5.722;2023-04-07T11:04:36;99277.84;;;25.19;32.38
34197;BME280;36594;45.192;5.722;2023-04-07T11:07:42;99268.52;;;25.20;32.32
34197;BME280;36594;45.192;5.722;2023-04-07T11:10:31;99264.66;;;25.21;32.35
34197;BME280;36594;45.192;5.722;2023-04-07T11:13:19;99260.27;;;25.20;32.31
34197;BME280;36594;45.192;5.722;2023-04-07T11:16:09;99248.73;;;25.20;32.33
34197;BME280;36594;45.192;5.722;2023-04-07T11:18:57;99234.42;;;25.21;32.31
34197;BME280;36594;45.192;5.722;2023-04-07T11:21:46;99238.55;;;25.21;32.28
34197;BME280;36594;45.192;5.722;2023-04-07T11:24:37;99236.66;;;25.24;32.25
34197;BME280;36594;45.192;5.722;2023-04-07T11:27:26;99231.47;;;25.25;32.17
34197;BME280;36594;45.192;5.722;2023-04-07T11:30:15;99223.22;;;25.25;32.14
34197;BME280;36594;45.192;5.722;2023-04-07T11:33:04;99230.92;;;25.28;32.14
34197;BME280;36594;45.192;5.722;2023-04-07T11:35:58;99220.23;;;25.29;32.10
34197;BME280;36594;45.192;5.722;2023-04-07T11:38:47;99208.13;;;25.27;32.11
34197;BME280;36594;45.192;5.722;2023-04-07T11:41:44;99200.14;;;25.28;32.10
34197;BME280;36594;45.192;5.722;2023-04-07T11:44:26;99195.45;;;25.26;32.12
34197;BME280;36594;45.192;5.722;2023-04-07T11:47:15;99196.02;;;25.28;32.09
34197;BME280;36594;45.192;5.722;2023-04-07T11:50:04;99186.97;;;25.30;32.08
34197;BME280;36594;45.192;5.722;2023-04-07T11:52:52;99185.05;;;25.31;32.08
34197;BME280;36594;45.192;5.722;2023-04-07T11:55:41;99179.02;;;25.31;32.05
34197;BME280;36594;45.192;5.722;2023-04-07T11:58:30;99174.89;;;25.31;32.04
34197;BME280;36594;45.192;5.722;2023-04-07T12:01:19;99167.48;;;25.32;32.04
34197;BME280;36594;45.192;5.722;2023-04-07T12:04:11;99157.28;;;25.32;32.06
34197;BME280;36594;45.192;5.722;2023-04-07T12:07:09;99159.80;;;25.34;32.08
34197;BME280;36594;45.192;5.722;2023-04-07T12:09:57;99163.65;;;25.35;32.12
34197;BME280;36594;45.192;5.722;2023-04-07T12:12:46;99172.73;;;25.36;32.09
34197;BME280;36594;45.192;5.722;2023-04-07T12:15:35;99157.61;;;25.36;32.12
34197;BME280;36594;45.192;5.722;2023-04-07T12:18:24;99162.30;;;25.38;32.09
34197;BME280;36594;45.192;5.722;2023-04-07T12:21:13;99158.98;;;25.36;32.14
34197;BME280;36594;45.192;5.722;2023-04-07T12:24:01;99148.83;;;25.36;32.17
34197;BME280;36594;45.192;5.722;2023-04-07T12:26:49;99155.42;;;25.38;32.16
34197;BME280;36594;45.192;5.722;2023-04-07T12:29:38;99145.83;;;25.40;32.11
34197;BME280;36594;45.192;5.722;2023-04-07T12:32:27;99141.41;;;25.39;32.12
34197;BME280;36594;45.192;5.722;2023-04-07T12:35:15;99148.04;;;25.41;32.12
34197;BME280;36594;45.192;5.722;2023-04-07T12:38:04;99143.05;;;25.38;32.18
34197;BME280;36594;45.192;5.722;2023-04-07T12:40:52;99137.28;;;25.39;32.18
34197;BME280;36594;45.192;5.722;2023-04-07T12:43:40;99112.48;;;25.32;32.15
34197;BME280;36594;45.192;5.722;2023-04-07T12:46:28;99122.45;;;25.40;32.15
34197;BME280;36594;45.192;5.722;2023-04-07T12:49:17;99117.23;;;25.39;32.19
34197;BME280;36594;45.192;5.722;2023-04-07T12:52:05;99115.85;;;25.39;32.21
34197;BME280;36594;45.192;5.722;2023-04-07T12:54:54;99115.55;;;25.38;32.24
34197;BME280;36594;45.192;5.722;2023-04-07T12:57:43;99112.51;;;25.37;32.27
34197;BME280;36594;45.192;5.722;2023-04-07T13:00:32;99109.76;;;25.37;32.23
34197;BME280;36594;45.192;5.722;2023-04-07T13:03:20;99100.70;;;25.36;32.16
34197;BME280;36594;45.192;5.722;2023-04-07T13:06:08;99091.06;;;25.34;32.09
34197;BME280;36594;45.192;5.722;2023-04-07T13:08:57;99082.52;;;25.33;32.12
34197;BME280;36594;45.192;5.722;2023-04-07T13:11:46;99076.73;;;25.34;32.11
34197;BME280;36594;45.192;5.722;2023-04-07T13:14:34;99071.00;;;25.36;32.03
34197;BME280;36594;45.192;5.722;2023-04-07T13:17:23;99071.27;;;25.37;31.95
34197;BME280;36594;45.192;5.722;2023-04-07T13:20:11;99063.02;;;25.37;31.88
34197;BME280;36594;45.192;5.722;2023-04-07T13:23:00;99059.44;;;25.34;32.01
34197;BME280;36594;45.192;5.722;2023-04-07T13:25:48;99057.49;;;25.34;32.01
34197;BME280;36594;45.192;5.722;2023-04-07T13:28:36;99063.24;;;25.30;31.99
34197;BME280;36594;45.192;5.722;2023-04-07T13:31:26;99111.36;;;25.30;32.01
34197;BME280;36594;45.192;5.722;2023-04-07T13:34:15;99120.14;;;25.30;32.01
34197;BME280;36594;45.192;5.722;2023-04-07T13:37:03;99136.94;;;25.31;32.01
34197;BME280;36594;45.192;5.722;2023-04-07T13:39:52;99152.03;;;25.28;32.04
34197;BME280;36594;45.192;5.722;2023-04-07T13:42:42;99178.69;;;25.28;32.01
34197;BME280;36594;45.192;5.722;2023-04-07T13:45:30;99182.78;;;25.25;32.02
34197;BME280;36594;45.192;5.722;2023-04-07T13:48:20;99187.42;;;25.20;32.04
34197;BME280;36594;45.192;5.722;2023-04-07T13:51:09;99211.95;;;25.26;32.02
34197;BME280;36594;45.192;5.722;2023-04-07T13:53:57;99237.77;;;25.25;32.03
34197;BME280;36594;45.192;5.722;2023-04-07T13:56:47;99219.09;;;25.25;32.06
34197;BME280;36594;45.192;5.722;2023-04-07T13:59:35;99192.17;;;25.27;32.01
34197;BME280;36594;45.192;5.722;2023-04-07T14:02:25;99201.23;;;25.25;32.06
34197;BME280;36594;45.192;5.722;2023-04-07T14:05:18;99203.16;;;25.27;32.04
34197;BME280;36594;45.192;5.722;2023-04-07T14:08:06;99202.30;;;25.24;32.09
34197;BME280;36594;45.192;5.722;2023-04-07T14:10:54;99202.33;;;25.26;32.06
34197;BME280;36594;45.192;5.722;2023-04-07T14:13:44;99206.16;;;25.25;32.07
34197;BME280;36594;45.192;5.722;2023-04-07T14:16:32;99211.11;;;25.26;32.10
34197;BME280;36594;45.192;5.722;2023-04-07T14:19:21;99208.66;;;25.27;32.16
34197;BME280;36594;45.192;5.722;2023-04-07T14:22:10;99207.59;;;25.30;32.10
34197;BME280;36594;45.192;5.722;2023-04-07T14:24:58;99215.80;;;25.28;31.98
34197;BME280;36594;45.192;5.722;2023-04-07T14:27:46;99208.13;;;25.27;31.94
34197;BME280;36594;45.192;5.722;2023-04-07T14:30:36;99204.24;;;25.26;32.01
34197;BME280;36594;45.192;5.722;2023-04-07T14:33:27;99197.10;;;25.25;32.04
34197;BME280;36594;45.192;5.722;2023-04-07T14:36:15;99194.35;;;25.25;32.08
34197;BME280;36594;45.192;5.722;2023-04-07T14:39:04;99184.16;;;25.25;32.06
34197;BME280;36594;45.192;5.722;2023-04-07T14:41:53;99185.00;;;25.26;32.06
34197;BME280;36594;45.192;5.722;2023-04-07T14:44:41;99180.88;;;25.26;32.11
34197;BME280;36594;45.192;5.722;2023-04-07T14:47:30;99180.30;;;25.24;32.13
34197;BME280;36594;45.192;5.722;2023-04-07T14:50:18;99186.37;;;25.26;32.12
34197;BME280;36594;45.192;5.722;2023-04-07T14:53:06;99178.39;;;25.24;32.11
34197;BME280;36594;45.192;5.722;2023-04-07T14:55:55;99177.28;;;25.25;32.10
34197;BME280;36594;45.192;5.722;2023-04-07T14:58:44;99179.23;;;25.25;32.12
34197;BME280;36594;45.192;5.722;2023-04-07T15:01:32;99176.48;;;25.25;32.11
34197;BME280;36594;45.192;5.722;2023-04-07T15:04:20;99181.44;;;25.28;32.10
34197;BME280;36594;45.192;5.722;2023-04-07T15:07:08;99169.64;;;25.27;32.10